Crockett Mills, Tennessee
Current Conditions -  °F | °C
As of 8:15 PM on Sunday 25 Jan 2015 (Local Time) from KDYR Reporting Station
Overcast Overcast  
Wind Chill: 40°   Ceiling: 3100
Heat Index: 45°   Visibility: 10mi
Dew Point: 28°   Wind: 9mph
Humidity: 53%   Direction: 290°WNW
Pressure: 29.84"   Gusts: 18mph
Location:  35.87°N, 89.17°W
Report Text: KDYR 260215Z 29008G16KT 10SM OVC031 07/M02 A2984 RMK AO1
Loading
Personal Weather Stations






























Interactive Weather Map New forecast layout! Learn more

10-Day Weather Forecast

Advertisements
Track Severe Weather on mobile